createdAt,value
2016-09-08T00:00:55.235Z,25.58
2016-09-08T00:01:55.245Z,25.55
2016-09-08T00:02:54.941Z,25.55
2016-09-08T00:03:54.951Z,25.51
2016-09-08T00:04:55.317Z,25.58
2016-09-08T00:05:55.862Z,25.47
2016-09-08T00:06:54.975Z,25.52
2016-09-08T00:07:55.289Z,25.52
2016-09-08T00:08:55.349Z,25.54
2016-09-08T00:09:56.430Z,25.55
2016-09-08T00:10:55.051Z,25.54
2016-09-08T00:11:55.316Z,25.52
2016-09-08T00:12:55.382Z,25.51
2016-09-08T00:13:55.022Z,25.52
2016-09-08T00:14:55.339Z,25.46
2016-09-08T00:15:55.035Z,25.5
2016-09-08T00:16:55.352Z,25.45
2016-09-08T00:17:55.050Z,25.54
2016-09-08T00:18:55.056Z,25.57
2016-09-08T00:19:55.393Z,25.52
2016-09-08T00:20:56.361Z,25.52
2016-09-08T00:21:55.083Z,25.58
2016-09-08T00:22:55.397Z,25.61
2016-09-08T00:23:54.788Z,25.67
2016-09-08T00:24:54.788Z,25.62
2016-09-08T00:25:55.109Z,25.55
2016-09-08T00:26:55.431Z,25.6
2016-09-08T00:27:54.821Z,25.55
2016-09-08T00:28:55.131Z,25.57
2016-09-08T00:29:55.143Z,25.58
2016-09-08T00:30:55.148Z,25.57
2016-09-08T00:31:55.793Z,25.45
2016-09-08T00:32:55.212Z,25.54
2016-09-08T00:33:55.169Z,25.62
2016-09-08T00:34:55.176Z,25.65
2016-09-08T00:35:54.875Z,25.64
2016-09-08T00:36:55.507Z,25.58
2016-09-08T00:37:55.202Z,25.64
2016-09-08T00:38:55.206Z,25.55
2016-09-08T00:39:55.214Z,25.6
2016-09-08T00:40:56.514Z,25.57
2016-09-08T00:41:55.228Z,25.58
2016-09-08T00:42:55.905Z,25.47
2016-09-08T00:43:55.245Z,25.57
2016-09-08T00:44:55.252Z,25.6
2016-09-08T00:45:55.258Z,25.5
2016-09-08T00:46:55.583Z,25.52
2016-09-08T00:47:54.962Z,25.52
2016-09-08T00:48:55.296Z,25.57
2016-09-08T00:49:55.602Z,25.51
2016-09-08T00:50:55.303Z,25.5
2016-09-08T00:51:56.092Z,25.45
2016-09-08T00:52:55.321Z,25.51
2016-09-08T00:53:55.305Z,25.51
2016-09-08T00:54:55.645Z,25.51
2016-09-08T00:55:56.771Z,25.43
2016-09-08T00:56:55.654Z,25.43
2016-09-08T00:57:55.347Z,25.5
2016-09-08T00:58:55.674Z,25.46
2016-09-08T00:59:55.675Z,25.47
2016-09-08T01:00:55.386Z,25.46
2016-09-08T01:01:55.694Z,25.5
2016-09-08T01:02:55.794Z,25.43
2016-09-08T01:03:55.395Z,25.52
2016-09-08T01:04:55.714Z,25.4
2016-09-08T01:05:55.726Z,25.46
2016-09-08T01:06:56.920Z,25.5
2016-09-08T01:07:55.111Z,25.51
2016-09-08T01:08:55.742Z,25.47
2016-09-08T01:09:55.752Z,25.47
2016-09-08T01:10:55.765Z,25.47
2016-09-08T01:11:55.142Z,25.51
2016-09-08T01:12:55.873Z,25.5
2016-09-08T01:13:55.155Z,25.5
2016-09-08T01:14:55.790Z,25.46
2016-09-08T01:15:55.794Z,25.45
2016-09-08T01:16:55.809Z,25.46
2016-09-08T01:17:56.339Z,25.46
2016-09-08T01:18:55.510Z,25.52
2016-09-08T01:19:55.512Z,25.43
2016-09-08T01:20:55.520Z,25.46
2016-09-08T01:21:55.526Z,25.47
2016-09-08T01:22:55.535Z,25.42
2016-09-08T01:23:55.543Z,25.45
2016-09-08T01:24:55.547Z,25.46
2016-09-08T01:25:55.555Z,25.42
2016-09-08T01:26:55.357Z,25.43
2016-09-08T01:27:55.621Z,25.45
2016-09-08T01:28:56.677Z,25.43
2016-09-08T01:29:55.583Z,25.51
2016-09-08T01:30:55.281Z,25.54
2016-09-08T01:31:55.597Z,25.46
2016-09-08T01:32:55.295Z,25.52
2016-09-08T01:33:55.613Z,25.5
2016-09-08T01:34:55.989Z,25.47
2016-09-08T01:35:55.630Z,25.54
2016-09-08T01:36:55.950Z,25.54
2016-09-08T01:37:55.957Z,25.5
2016-09-08T01:38:55.650Z,25.55
2016-09-08T01:39:56.168Z,25.47
2016-09-08T01:40:55.980Z,25.55
2016-09-08T01:41:55.988Z,25.6
2016-09-08T01:42:55.683Z,25.58
2016-09-08T01:43:56.011Z,25.51
2016-09-08T01:44:55.706Z,25.46
2016-09-08T01:45:55.394Z,25.43
2016-09-08T01:46:55.406Z,25.5
2016-09-08T01:47:55.719Z,25.43
2016-09-08T01:48:55.463Z,25.54
2016-09-08T01:49:55.425Z,25.54
2016-09-08T01:50:56.442Z,25.46
2016-09-08T01:51:56.077Z,25.5
2016-09-08T01:52:56.073Z,25.46
2016-09-08T01:53:55.762Z,25.45
2016-09-08T01:54:55.771Z,25.46
2016-09-08T01:55:55.471Z,25.47
2016-09-08T01:56:55.473Z,25.45
2016-09-08T01:57:55.797Z,25.45
2016-09-08T01:58:55.803Z,25.45
2016-09-08T01:59:55.810Z,25.43
2016-09-08T02:00:56.131Z,25.52
2016-09-08T02:01:55.972Z,25.42
2016-09-08T02:02:55.835Z,25.43
2016-09-08T02:03:56.891Z,25.45
2016-09-08T02:04:55.539Z,25.46
2016-09-08T02:05:55.856Z,25.52
2016-09-08T02:06:55.860Z,25.46
2016-09-08T02:07:55.867Z,25.45
2016-09-08T02:08:56.188Z,25.43
2016-09-08T02:09:56.194Z,25.5
2016-09-08T02:10:56.205Z,25.46
2016-09-08T02:11:55.581Z,25.46
2016-09-08T02:12:55.956Z,25.43
2016-09-08T02:13:56.220Z,25.43
2016-09-08T02:14:57.270Z,25.45
2016-09-08T02:15:55.975Z,25.5
2016-09-08T02:16:55.640Z,25.46
2016-09-08T02:17:55.940Z,25.43
2016-09-08T02:18:55.638Z,25.45
2016-09-08T02:19:55.957Z,25.45
2016-09-08T02:20:55.963Z,25.43
2016-09-08T02:21:55.969Z,25.4
2016-09-08T02:22:56.340Z,25.45
2016-09-08T02:23:56.299Z,25.42
2016-09-08T02:24:55.680Z,25.46
2016-09-08T02:25:57.004Z,25.42
2016-09-08T02:26:56.320Z,25.4
2016-09-08T02:27:56.214Z,25.47
2016-09-08T02:28:56.023Z,25.4
2016-09-08T02:29:56.028Z,25.36
2016-09-08T02:30:56.044Z,25.4
2016-09-08T02:31:55.730Z,25.39
2016-09-08T02:32:56.048Z,25.45
2016-09-08T02:33:56.060Z,25.43
2016-09-08T02:34:56.063Z,25.35
2016-09-08T02:35:55.759Z,25.4
2016-09-08T02:36:57.276Z,25.4
2016-09-08T02:37:56.401Z,25.42
2016-09-08T02:38:56.092Z,25.38
2016-09-08T02:39:56.106Z,25.36
2016-09-08T02:40:55.797Z,25.36
2016-09-08T02:41:56.116Z,25.38
2016-09-08T02:42:56.225Z,25.35
2016-09-08T02:43:56.454Z,25.39
2016-09-08T02:44:56.453Z,25.35
2016-09-08T02:45:56.460Z,25.38
2016-09-08T02:46:56.154Z,25.4
2016-09-08T02:47:57.216Z,25.39
2016-09-08T02:48:56.167Z,25.32
2016-09-08T02:49:56.491Z,25.39
2016-09-08T02:50:56.184Z,25.36
2016-09-08T02:51:56.505Z,25.43
2016-09-08T02:52:56.199Z,25.36
2016-09-08T02:53:56.207Z,25.42
2016-09-08T02:54:56.527Z,25.39
2016-09-08T02:55:56.224Z,25.38
2016-09-08T02:56:55.916Z,25.38
2016-09-08T02:57:56.249Z,25.35
2016-09-08T02:58:57.093Z,25.45
2016-09-08T02:59:55.936Z,25.4
2016-09-08T03:00:56.575Z,25.4
2016-09-08T03:01:56.580Z,25.36
2016-09-08T03:02:56.276Z,25.32
2016-09-08T03:03:55.969Z,25.32
2016-09-08T03:04:56.601Z,25.38
2016-09-08T03:05:56.298Z,25.38
2016-09-08T03:06:56.304Z,25.33
2016-09-08T03:07:55.999Z,25.39
2016-09-08T03:08:56.318Z,25.33
2016-09-08T03:09:57.327Z,25.36
2016-09-08T03:10:56.639Z,25.38
2016-09-08T03:11:56.231Z,25.36
2016-09-08T03:13:06.613Z,25.36
2016-09-08T03:13:56.045Z,25.38
2016-09-08T03:14:56.053Z,25.38
2016-09-08T03:15:56.734Z,25.38
2016-09-08T03:16:56.378Z,25.43
2016-09-08T03:17:56.383Z,25.39
2016-09-08T03:18:56.076Z,25.38
2016-09-08T03:19:56.713Z,25.36
2016-09-08T03:20:56.810Z,25.33
2016-09-08T03:21:56.725Z,25.36
2016-09-08T03:22:56.424Z,25.25
2016-09-08T03:23:56.792Z,25.38
2016-09-08T03:24:57.349Z,25.33
2016-09-08T03:25:56.130Z,25.35
2016-09-08T03:26:56.768Z,25.32
2016-09-08T03:27:56.554Z,25.3
2016-09-08T03:28:56.469Z,25.33
2016-09-08T03:29:56.476Z,25.32
2016-09-08T03:30:56.488Z,25.36
2016-09-08T03:31:56.801Z,25.4
2016-09-08T03:32:56.805Z,25.24
2016-09-08T03:33:56.504Z,25.3
2016-09-08T03:34:56.507Z,25.23
2016-09-08T03:35:57.009Z,25.33
2016-09-08T03:36:56.214Z,25.3
2016-09-08T03:37:56.272Z,25.25
2016-09-08T03:38:56.854Z,25.3
2016-09-08T03:39:57.249Z,25.23
2016-09-08T03:40:56.556Z,25.27
2016-09-08T03:41:56.661Z,25.24
2016-09-08T03:42:56.883Z,25.23
2016-09-08T03:43:56.575Z,25.21
2016-09-08T03:44:57.950Z,25.24
2016-09-08T03:45:56.280Z,25.24
2016-09-08T03:46:56.346Z,25.38
2016-09-08T03:47:56.921Z,25.38
2016-09-08T03:48:56.616Z,25.21
2016-09-08T03:49:56.624Z,25.25
2016-09-08T03:50:56.316Z,25.3
2016-09-08T03:51:56.640Z,25.3
2016-09-08T03:52:56.640Z,25.35
2016-09-08T03:53:56.967Z,25.27
2016-09-08T03:54:56.659Z,25.32
2016-09-08T03:55:57.468Z,25.23
2016-09-08T03:56:56.673Z,25.23
2016-09-08T03:57:56.885Z,25.18
2016-09-08T03:58:57.005Z,25.33
2016-09-08T03:59:56.694Z,25.23
2016-09-08T04:00:56.710Z,25.32
2016-09-08T04:01:57.023Z,25.2
2016-09-08T04:02:57.032Z,25.33
2016-09-08T04:03:56.727Z,25.21
2016-09-08T04:04:57.097Z,25.24
2016-09-08T04:05:56.744Z,25.32
2016-09-08T04:06:57.965Z,25.27
2016-09-08T04:07:57.069Z,25.27
2016-09-08T04:08:56.864Z,25.18
2016-09-08T04:09:56.458Z,25.21
2016-09-08T04:10:57.712Z,25.25
2016-09-08T04:11:57.150Z,25.27
2016-09-08T04:12:57.156Z,25.25
2016-09-08T04:13:56.801Z,25.23
2016-09-08T04:14:56.808Z,25.24
2016-09-08T04:15:57.132Z,25.24
2016-09-08T04:16:57.135Z,25.23
2016-09-08T04:17:56.829Z,25.21
2016-09-08T04:18:56.837Z,25.27
2016-09-08T04:19:56.843Z,25.32
2016-09-08T04:20:57.165Z,25.28
2016-09-08T04:21:58.025Z,25.25
2016-09-08T04:22:57.218Z,25.25
2016-09-08T04:23:57.193Z,25.25
2016-09-08T04:24:56.569Z,25.21
2016-09-08T04:25:57.201Z,25.23
2016-09-08T04:26:57.209Z,25.21
2016-09-08T04:27:56.907Z,25.24
2016-09-08T04:28:56.915Z,25.23
2016-09-08T04:29:56.607Z,25.21
2016-09-08T04:30:56.935Z,25.27
2016-09-08T04:31:57.245Z,25.25
2016-09-08T04:32:57.678Z,25.23
2016-09-08T04:33:56.949Z,25.33
2016-09-08T04:34:56.955Z,25.23
2016-09-08T04:35:57.273Z,25.33
2016-09-08T04:36:56.658Z,25.27
2016-09-08T04:37:56.975Z,25.24
2016-09-08T04:38:56.989Z,25.35
2016-09-08T04:39:56.994Z,25.25
2016-09-08T04:40:57.312Z,25.23
2016-09-08T04:41:57.007Z,25.18
2016-09-08T04:42:57.064Z,25.35
2016-09-08T04:43:57.760Z,25.33
2016-09-08T04:44:57.028Z,25.21
2016-09-08T04:45:57.037Z,25.25
2016-09-08T04:46:57.041Z,25.32
2016-09-08T04:47:57.364Z,25.21
2016-09-08T04:48:57.059Z,25.28
2016-09-08T04:49:57.378Z,25.21
2016-09-08T04:50:57.132Z,25.27
2016-09-08T04:51:56.768Z,25.2
2016-09-08T04:52:58.077Z,25.28
2016-09-08T04:53:57.407Z,25.28
2016-09-08T04:54:57.404Z,25.25
2016-09-08T04:55:56.799Z,25.21
2016-09-08T04:56:56.805Z,25.28
2016-09-08T04:57:57.122Z,25.25
2016-09-08T04:58:57.136Z,25.33
2016-09-08T04:59:57.450Z,25.21
2016-09-08T05:00:57.150Z,25.21
2016-09-08T05:01:56.846Z,25.25
2016-09-08T05:02:56.849Z,25.33
2016-09-08T05:03:57.169Z,25.23
2016-09-08T05:04:57.229Z,25.23
2016-09-08T05:05:57.485Z,25.28
2016-09-08T05:06:57.190Z,25.23
2016-09-08T05:07:57.200Z,25.25
2016-09-08T05:08:57.522Z,25.23
2016-09-08T05:09:57.527Z,25.23
2016-09-08T05:10:57.223Z,25.23
2016-09-08T05:11:57.232Z,25.21
2016-09-08T05:12:57.251Z,25.25
2016-09-08T05:13:57.560Z,25.21
2016-09-08T05:14:56.939Z,25.2
2016-09-08T05:15:57.260Z,25.24
2016-09-08T05:16:57.582Z,25.21
2016-09-08T05:17:57.270Z,25.25
2016-09-08T05:18:57.019Z,25.24
2016-09-08T05:19:57.289Z,25.21
2016-09-08T05:20:57.613Z,25.24
2016-09-08T05:21:57.313Z,25.21
2016-09-08T05:22:57.625Z,25.21
2016-09-08T05:23:57.367Z,25.27
2016-09-08T05:24:57.014Z,25.23
2016-09-08T05:25:57.072Z,25.21
2016-09-08T05:26:57.339Z,25.21
2016-09-08T05:27:57.809Z,25.23
2016-09-08T05:28:57.406Z,25.24
2016-09-08T05:29:58.577Z,25.24
2016-09-08T05:30:57.370Z,25.2
2016-09-08T05:31:57.066Z,25.24
2016-09-08T05:32:57.083Z,25.24
2016-09-08T05:33:57.390Z,25.23
2016-09-08T05:34:57.403Z,25.2
2016-09-08T05:35:57.407Z,25.23
2016-09-08T05:36:57.432Z,25.23
2016-09-08T05:37:57.424Z,25.21
2016-09-08T05:38:57.742Z,25.27
2016-09-08T05:39:58.400Z,25.32
2016-09-08T05:40:58.394Z,25.25
2016-09-08T05:41:57.767Z,25.25
2016-09-08T05:42:57.822Z,25.23
2016-09-08T05:43:57.782Z,25.23
2016-09-08T05:44:57.161Z,25.24
2016-09-08T05:45:57.798Z,25.23
2016-09-08T05:46:57.489Z,25.28
2016-09-08T05:47:57.497Z,25.23
2016-09-08T05:48:57.554Z,25.27
2016-09-08T05:49:57.825Z,25.28
2016-09-08T05:50:57.519Z,25.21
2016-09-08T05:51:58.174Z,25.21
2016-09-08T05:52:57.224Z,25.25
2016-09-08T05:53:57.539Z,25.21
2016-09-08T05:54:57.860Z,25.3
2016-09-08T05:55:57.558Z,25.35
2016-09-08T05:56:57.563Z,25.3
2016-09-08T05:57:57.572Z,25.35
2016-09-08T05:58:57.888Z,25.27
2016-09-08T05:59:57.585Z,25.36
2016-09-08T06:00:57.907Z,25.42
2016-09-08T06:01:57.601Z,25.32
2016-09-08T06:02:58.122Z,25.33
2016-09-08T06:03:57.675Z,25.36
2016-09-08T06:04:58.970Z,25.43
2016-09-08T06:05:57.950Z,25.38
2016-09-08T06:06:57.330Z,25.35
2016-09-08T06:07:57.335Z,25.45
2016-09-08T06:08:57.654Z,25.39
2016-09-08T06:09:57.349Z,25.36
2016-09-08T06:10:57.357Z,25.4
2016-09-08T06:11:57.993Z,25.46
2016-09-08T06:13:12.249Z,25.47
2016-09-08T06:13:57.879Z,25.47
2016-09-08T06:14:58.011Z,25.52
2016-09-08T06:15:59.269Z,25.51
2016-09-08T06:16:58.025Z,25.54
2016-09-08T06:17:57.726Z,25.47
2016-09-08T06:18:57.418Z,25.52
2016-09-08T06:19:57.738Z,25.55
2016-09-08T06:20:58.063Z,25.62
2016-09-08T06:21:58.065Z,25.61
2016-09-08T06:22:58.072Z,25.69
2016-09-08T06:23:58.139Z,25.64
2016-09-08T06:24:58.092Z,25.72
2016-09-08T06:25:57.471Z,25.72
2016-09-08T06:26:58.901Z,25.69
2016-09-08T06:27:57.794Z,25.72
2016-09-08T06:28:58.166Z,25.73
2016-09-08T06:29:58.174Z,25.73
2016-09-08T06:30:57.820Z,25.83
2016-09-08T06:31:58.139Z,25.76
2016-09-08T06:32:57.835Z,25.79
2016-09-08T06:33:57.837Z,25.73
2016-09-08T06:34:58.161Z,25.85
2016-09-08T06:35:57.542Z,25.9
2016-09-08T06:36:58.178Z,25.88
2016-09-08T06:37:58.673Z,25.97
2016-09-08T06:38:58.190Z,25.99
2016-09-08T06:39:57.883Z,25.99
2016-09-08T06:40:58.210Z,26.12
2016-09-08T06:41:58.217Z,26.12
2016-09-08T06:43:12.477Z,26.23
2016-09-08T06:43:57.922Z,26.25
2016-09-08T06:44:57.927Z,26.23
2016-09-08T06:45:57.934Z,26.25
2016-09-08T06:46:57.946Z,26.15
2016-09-08T06:47:57.957Z,26.02
2016-09-08T06:48:58.514Z,25.98
2016-09-08T06:49:57.975Z,25.95
2016-09-08T06:50:59.268Z,25.91
2016-09-08T06:51:58.300Z,25.82
2016-09-08T06:52:58.312Z,25.73
2016-09-08T06:53:58.004Z,25.87
2016-09-08T06:54:58.012Z,25.8
2016-09-08T06:55:58.024Z,25.85
2016-09-08T06:56:57.715Z,25.76
2016-09-08T06:57:58.102Z,25.79
2016-09-08T06:58:57.733Z,25.82
2016-09-08T06:59:58.427Z,25.79
2016-09-08T07:00:57.751Z,25.82
2016-09-08T07:01:59.460Z,25.85
2016-09-08T07:02:58.081Z,25.82
2016-09-08T07:03:58.402Z,25.7
2016-09-08T07:04:58.187Z,25.73
2016-09-08T07:05:58.519Z,25.72
2016-09-08T07:06:58.479Z,25.79
2016-09-08T07:07:58.132Z,25.75
2016-09-08T07:08:59.372Z,25.77
2016-09-08T07:09:58.609Z,25.73
2016-09-08T07:10:57.835Z,25.77
2016-09-08T07:11:58.154Z,25.82
2016-09-08T07:13:13.038Z,25.82
2016-09-08T07:13:58.666Z,25.83
2016-09-08T07:14:58.492Z,25.77
2016-09-08T07:15:58.285Z,25.75
2016-09-08T07:16:58.197Z,25.76
2016-09-08T07:17:58.409Z,25.87
2016-09-08T07:18:58.331Z,25.77
2016-09-08T07:19:58.248Z,25.73
2016-09-08T07:20:58.589Z,25.73
2016-09-08T07:21:57.923Z,25.8
2016-09-08T07:22:58.558Z,25.76
2016-09-08T07:23:58.256Z,25.73
2016-09-08T07:24:59.068Z,25.72
2016-09-08T07:25:58.670Z,25.7
2016-09-08T07:26:59.160Z,25.73
2016-09-08T07:27:58.593Z,25.77
2016-09-08T07:28:58.607Z,25.7
2016-09-08T07:29:58.734Z,25.72
2016-09-08T07:30:57.991Z,25.64
2016-09-08T07:31:58.412Z,25.67
2016-09-08T07:32:58.060Z,25.65
2016-09-08T07:33:59.530Z,25.72
2016-09-08T07:34:58.164Z,25.75
2016-09-08T07:35:58.442Z,25.7
2016-09-08T07:36:58.380Z,25.7
2016-09-08T07:37:58.045Z,25.65
2016-09-08T07:38:58.455Z,25.7
2016-09-08T07:39:58.422Z,25.64
2016-09-08T07:40:59.173Z,25.67
2016-09-08T07:41:58.407Z,25.69
2016-09-08T07:42:59.776Z,25.67
2016-09-08T07:43:58.410Z,25.62
2016-09-08T07:44:58.740Z,25.57
2016-09-08T07:45:58.533Z,25.61
2016-09-08T07:46:58.424Z,25.69
2016-09-08T07:47:58.618Z,25.67
2016-09-08T07:48:58.752Z,25.62
2016-09-08T07:49:58.797Z,25.67
2016-09-08T07:50:58.189Z,25.7
2016-09-08T07:51:58.466Z,25.69
2016-09-08T07:52:58.480Z,25.69
2016-09-08T07:53:58.794Z,25.67
2016-09-08T07:54:58.556Z,25.7
2016-09-08T07:55:58.183Z,25.67
2016-09-08T07:56:58.280Z,25.67
2016-09-08T07:57:58.671Z,25.7
2016-09-08T07:59:00.107Z,25.61
2016-09-08T07:59:58.681Z,25.57
2016-09-08T08:00:58.891Z,25.69
2016-09-08T08:01:58.283Z,25.7
2016-09-08T08:02:58.555Z,25.7
2016-09-08T08:03:58.642Z,25.75
2016-09-08T08:04:58.620Z,25.72
2016-09-08T08:05:59.738Z,25.76
2016-09-08T08:06:58.621Z,25.79
2016-09-08T08:07:58.590Z,25.72
2016-09-08T08:08:58.709Z,25.73
2016-09-08T08:09:58.286Z,25.77
2016-09-08T08:10:58.750Z,25.72
2016-09-08T08:11:58.946Z,25.8
2016-09-08T08:12:58.784Z,25.76
2016-09-08T08:13:58.710Z,25.79
2016-09-08T08:14:58.420Z,25.77
2016-09-08T08:15:58.707Z,25.82
2016-09-08T08:16:58.970Z,25.76
2016-09-08T08:17:59.002Z,25.73
2016-09-08T08:18:58.979Z,25.76
2016-09-08T08:20:01.165Z,25.82
2016-09-08T08:20:58.764Z,25.77
2016-09-08T08:21:59.054Z,25.72
2016-09-08T08:22:59.084Z,25.8
2016-09-08T08:23:59.114Z,25.77
2016-09-08T08:24:59.153Z,25.9
2016-09-08T08:25:59.075Z,26.2
2016-09-08T08:27:01.027Z,26.5
2016-09-08T08:27:59.170Z,26.69
2016-09-08T08:28:59.184Z,26.76
2016-09-08T08:29:58.760Z,26.87
2016-09-08T08:30:59.082Z,26.92
2016-09-08T08:31:58.899Z,26.95
2016-09-08T08:32:58.785Z,27.03
2016-09-08T08:33:58.726Z,27.09
2016-09-08T08:34:59.338Z,27.06
2016-09-08T08:35:59.299Z,27.07
2016-09-08T08:36:58.627Z,27.12
2016-09-08T08:37:58.655Z,27.1
2016-09-08T08:38:58.931Z,27.13
2016-09-08T08:39:58.989Z,27.13
2016-09-08T08:41:00.454Z,27.09
2016-09-08T08:41:59.302Z,27.06
2016-09-08T08:42:58.949Z,27.13
2016-09-08T08:43:58.700Z,27.1
2016-09-08T08:44:58.973Z,27.07
2016-09-08T08:45:59.001Z,27.12
2016-09-08T08:46:59.071Z,27.13
2016-09-08T08:47:58.726Z,27.07
2016-09-08T08:48:58.781Z,27.12
2016-09-08T08:49:58.647Z,27.02
2016-09-08T08:50:58.807Z,27.18
2016-09-08T08:51:59.350Z,27.1
2016-09-08T08:53:00.110Z,27.07
2016-09-08T08:53:59.068Z,27.04
2016-09-08T08:55:00.324Z,27.13
2016-09-08T08:55:59.014Z,27.04
2016-09-08T08:56:59.350Z,27.09
2016-09-08T08:57:59.095Z,27.02
2016-09-08T08:58:59.125Z,26.94
2016-09-08T09:00:00.093Z,26.87
2016-09-08T09:00:59.085Z,26.8
2016-09-08T09:01:59.227Z,26.73
2016-09-08T09:02:59.233Z,26.57
2016-09-08T09:03:59.230Z,26.65
2016-09-08T09:04:59.590Z,26.65
2016-09-08T09:05:59.446Z,26.63
2016-09-08T09:06:59.996Z,26.65
2016-09-08T09:07:58.877Z,26.51
2016-09-08T09:08:59.183Z,26.57
2016-09-08T09:09:59.260Z,26.52
2016-09-08T09:10:59.203Z,26.52
2016-09-08T09:12:00.046Z,26.55
2016-09-08T09:12:59.548Z,26.52
2016-09-08T09:13:59.582Z,26.58
2016-09-08T09:14:59.278Z,26.44
2016-09-08T09:15:58.879Z,26.47
2016-09-08T09:16:59.387Z,26.48
2016-09-08T09:17:59.267Z,26.45
2016-09-08T09:19:00.426Z,26.47
2016-09-08T09:19:59.367Z,26.47
2016-09-08T09:20:59.258Z,26.52
2016-09-08T09:21:59.771Z,26.6
2016-09-08T09:22:59.001Z,26.51
2016-09-08T09:23:59.422Z,26.54
2016-09-08T09:24:59.288Z,26.55
2016-09-08T09:25:59.690Z,26.51
2016-09-08T09:26:59.449Z,26.55
2016-09-08T09:27:59.811Z,26.44
2016-09-08T09:28:59.400Z,26.5
2016-09-08T09:29:59.799Z,26.48
2016-09-08T09:30:59.755Z,26.45
2016-09-08T09:31:59.638Z,26.51
2016-09-08T09:32:59.374Z,26.45
2016-09-08T09:33:59.905Z,26.45
2016-09-08T09:34:59.513Z,26.47
2016-09-08T09:36:00.488Z,26.51
2016-09-08T09:36:59.520Z,26.58
2016-09-08T09:37:59.808Z,26.52
2016-09-08T09:38:59.882Z,26.58
2016-09-08T09:39:59.425Z,26.43
2016-09-08T09:40:59.868Z,26.44
2016-09-08T09:41:59.602Z,26.5
2016-09-08T09:42:59.172Z,26.54
2016-09-08T09:43:59.848Z,26.51
2016-09-08T09:44:59.562Z,26.55
2016-09-08T09:45:59.595Z,26.48
2016-09-08T09:46:59.882Z,26.45
2016-09-08T09:48:00.867Z,26.52
2016-09-08T09:48:59.919Z,26.47
2016-09-08T09:49:59.207Z,26.52
2016-09-08T09:50:59.925Z,26.54
2016-09-08T09:51:59.906Z,26.44
2016-09-08T09:52:59.924Z,26.48
2016-09-08T09:53:59.910Z,26.52
2016-09-08T09:54:59.735Z,26.44
2016-09-08T09:55:59.669Z,26.45
2016-09-08T09:56:59.997Z,26.57
2016-09-08T09:58:00.205Z,26.4
2016-09-08T09:59:00.034Z,26.51
2016-09-08T10:00:00.005Z,26.58
2016-09-08T10:00:59.713Z,26.5
2016-09-08T10:01:59.963Z,26.55
2016-09-08T10:02:59.433Z,26.54
2016-09-08T10:03:59.565Z,26.58
2016-09-08T10:05:00.615Z,26.58
2016-09-08T10:05:59.810Z,26.54
2016-09-08T10:06:59.813Z,26.57
2016-09-08T10:08:00.083Z,26.52
2016-09-08T10:09:00.074Z,26.51
2016-09-08T10:10:01.051Z,26.51
2016-09-08T10:11:00.053Z,26.48
2016-09-08T10:11:59.809Z,26.51
2016-09-08T10:12:59.535Z,26.5
2016-09-08T10:14:00.140Z,26.65
2016-09-08T10:14:59.851Z,26.52
2016-09-08T10:15:59.870Z,26.6
2016-09-08T10:17:00.287Z,26.62
2016-09-08T10:17:59.435Z,26.5
2016-09-08T10:18:59.549Z,26.6
2016-09-08T10:19:59.519Z,26.65
2016-09-08T10:20:59.854Z,26.66
2016-09-08T10:22:00.911Z,26.54
2016-09-08T10:23:00.339Z,26.54
2016-09-08T10:23:59.935Z,26.55
2016-09-08T10:25:00.371Z,26.52
2016-09-08T10:25:59.820Z,26.51
2016-09-08T10:27:00.662Z,26.57
2016-09-08T10:28:00.270Z,26.65
2016-09-08T10:29:00.358Z,26.66
2016-09-08T10:30:00.366Z,26.7
2016-09-08T10:30:59.607Z,26.73
2016-09-08T10:32:00.839Z,26.62
2016-09-08T10:33:00.350Z,26.72
2016-09-08T10:33:59.981Z,26.66
2016-09-08T10:35:00.270Z,26.63
2016-09-08T10:35:59.722Z,26.66
2016-09-08T10:37:00.914Z,26.6
2016-09-08T10:37:59.924Z,26.72
2016-09-08T10:39:00.104Z,26.7
2016-09-08T10:40:00.007Z,26.7
2016-09-08T10:41:00.101Z,26.67
2016-09-08T10:42:00.352Z,26.62
2016-09-08T10:43:00.556Z,26.6
2016-09-08T10:43:59.994Z,26.69
2016-09-08T10:45:00.356Z,26.63
2016-09-08T10:45:59.678Z,26.6
2016-09-08T10:47:01.038Z,26.62
2016-09-08T10:48:00.403Z,26.69
2016-09-08T10:49:00.422Z,26.72
2016-09-08T10:50:00.123Z,26.62
2016-09-08T10:51:00.042Z,26.69
2016-09-08T10:52:00.124Z,26.66
2016-09-08T10:53:00.486Z,26.66
2016-09-08T10:54:00.518Z,26.66
2016-09-08T10:55:00.605Z,26.66
2016-09-08T10:56:00.496Z,26.69
2016-09-08T10:57:00.234Z,26.66
2016-09-08T10:57:59.828Z,26.7
2016-09-08T10:59:00.535Z,26.66
2016-09-08T11:00:00.529Z,26.73
2016-09-08T11:01:00.157Z,26.67
2016-09-08T11:02:00.688Z,26.65
2016-09-08T11:03:00.501Z,26.72
2016-09-08T11:04:00.569Z,26.7
2016-09-08T11:05:00.261Z,26.7
2016-09-08T11:06:00.629Z,26.72
2016-09-08T11:07:00.598Z,26.66
2016-09-08T11:07:59.871Z,26.65
2016-09-08T11:09:00.222Z,26.67
2016-09-08T11:10:00.654Z,26.66
2016-09-08T11:11:00.368Z,26.72
2016-09-08T11:12:00.408Z,26.73
2016-09-08T11:13:00.411Z,26.65
2016-09-08T11:14:00.631Z,26.63
2016-09-08T11:15:00.331Z,26.65
2016-09-08T11:16:00.534Z,26.7
2016-09-08T11:17:00.355Z,26.69
2016-09-08T11:18:00.665Z,26.66
2016-09-08T11:19:00.642Z,26.72
2016-09-08T11:19:59.936Z,26.65
2016-09-08T11:21:00.695Z,26.66
2016-09-08T11:22:00.690Z,26.73
2016-09-08T11:23:00.323Z,26.58
2016-09-08T11:24:00.823Z,26.63
2016-09-08T11:25:01.093Z,26.65
2016-09-08T11:26:00.413Z,26.65
2016-09-08T11:27:00.754Z,26.54
2016-09-08T11:28:00.653Z,26.62
2016-09-08T11:29:00.429Z,26.62
2016-09-08T11:30:00.765Z,26.69
2016-09-08T11:31:00.377Z,26.66
2016-09-08T11:32:00.385Z,26.72
2016-09-08T11:33:00.158Z,26.67
2016-09-08T11:34:00.085Z,26.69
2016-09-08T11:35:00.778Z,26.66
2016-09-08T11:36:00.876Z,26.6
2016-09-08T11:37:00.590Z,26.6
2016-09-08T11:38:00.880Z,26.51
2016-09-08T11:39:00.935Z,26.63
2016-09-08T11:40:00.914Z,26.63
2016-09-08T11:41:01.702Z,26.72
2016-09-08T11:42:00.535Z,26.72
2016-09-08T11:43:00.620Z,26.67
2016-09-08T11:44:00.504Z,26.63
2016-09-08T11:45:00.892Z,26.73
2016-09-08T11:46:01.537Z,26.65
2016-09-08T11:47:00.952Z,26.72
2016-09-08T11:48:00.524Z,26.69
2016-09-08T11:49:00.866Z,26.7
2016-09-08T11:50:00.586Z,26.7
2016-09-08T11:51:00.356Z,26.67
2016-09-08T11:52:00.696Z,26.65
2016-09-08T11:53:00.973Z,26.67
2016-09-08T11:54:00.979Z,26.65
2016-09-08T11:55:01.042Z,26.76
2016-09-08T11:56:00.683Z,26.65
2016-09-08T11:57:01.129Z,26.66
2016-09-08T11:58:01.071Z,26.69
2016-09-08T11:59:01.033Z,26.65
2016-09-08T12:00:01.096Z,26.72
2016-09-08T12:01:00.590Z,26.76
2016-09-08T12:02:00.717Z,26.73
2016-09-08T12:03:01.082Z,26.81
2016-09-08T12:04:01.000Z,26.73
2016-09-08T12:05:00.687Z,26.65
2016-09-08T12:06:00.292Z,26.69
2016-09-08T12:07:00.735Z,26.73
2016-09-08T12:08:00.803Z,26.7
2016-09-08T12:09:01.139Z,26.69
2016-09-08T12:10:01.082Z,26.72
2016-09-08T12:11:00.850Z,26.67
2016-09-08T12:12:00.806Z,26.75
2016-09-08T12:13:02.282Z,26.76
2016-09-08T12:14:00.970Z,26.66
2016-09-08T12:15:01.181Z,26.66
2016-09-08T12:16:01.078Z,26.7
2016-09-08T12:17:00.891Z,26.63
2016-09-08T12:18:00.733Z,26.76
2016-09-08T12:19:01.220Z,26.69
2016-09-08T12:20:00.537Z,26.73
2016-09-08T12:21:01.597Z,26.63
2016-09-08T12:22:01.280Z,26.69
2016-09-08T12:23:00.549Z,26.69
2016-09-08T12:24:01.397Z,26.7
2016-09-08T12:25:01.383Z,26.69
2016-09-08T12:26:01.165Z,26.69
2016-09-08T12:27:01.757Z,26.6
2016-09-08T12:28:00.847Z,26.73
2016-09-08T12:29:01.312Z,26.67
2016-09-08T12:30:01.081Z,26.69
2016-09-08T12:31:00.954Z,26.66
2016-09-08T12:32:00.895Z,26.7
2016-09-08T12:33:01.247Z,26.69
2016-09-08T12:34:01.391Z,26.66
2016-09-08T12:35:01.023Z,26.7
2016-09-08T12:36:01.193Z,26.7
2016-09-08T12:37:01.309Z,26.67
2016-09-08T12:38:00.761Z,26.72
2016-09-08T12:39:01.250Z,26.66
2016-09-08T12:40:01.212Z,26.73
2016-09-08T12:41:01.328Z,26.73
2016-09-08T12:42:00.603Z,26.69
2016-09-08T12:43:01.414Z,26.69
2016-09-08T12:44:01.959Z,26.69
2016-09-08T12:45:01.313Z,26.7
2016-09-08T12:46:01.033Z,26.75
2016-09-08T12:47:01.441Z,26.69
2016-09-08T12:48:00.727Z,26.66
2016-09-08T12:49:00.990Z,26.63
2016-09-08T12:50:00.660Z,26.66
2016-09-08T12:51:01.129Z,26.69
2016-09-08T12:52:01.102Z,26.65
2016-09-08T12:53:01.100Z,26.72
2016-09-08T12:54:01.389Z,26.73
2016-09-08T12:55:01.329Z,26.75
2016-09-08T12:56:02.078Z,26.69